Time;durP1;ratioP1;P1;durP2;ratioP2;P2;SDS_P1;SDS_P2;PMS_P1;PMS_P2;Temp;Humidity;BMP_temperature;BMP_pressure;BME280_temperature;BME280_humidity;BME280_pressure;Samples;Min_cycle;Max_cycle;Signal;HPM_P1;HPM_P2
2021/12/24 00:02:38;;;;;;;9.55;5.20;;;7.10;99.90;;;;;;10165850;28;84267;-51
2021/12/24 00:07:39;;;;;;;12.10;5.70;;;7.10;99.90;;;;;;10165077;28;84064;-53
2021/12/24 00:12:55;;;;;;;13.15;6.22;;;7.20;99.90;;;;;;10149462;28;84900;-54
2021/12/24 00:18:04;;;;;;;14.90;6.80;;;7.20;99.90;;;;;;10165146;28;85097;-52
2021/12/24 00:39:03;;;;;;;16.95;8.13;;;7.30;99.90;;;;;;10165134;28;84342;-53
2021/12/24 00:44:04;;;;;;;16.10;7.25;;;7.30;99.90;;;;;;10166985;28;84879;-50
2021/12/24 00:49:04;;;;;;;14.93;7.45;;;7.40;99.90;;;;;;10171928;28;84806;-50
2021/12/24 00:59:24;;;;;;;18.27;7.10;;;7.50;99.90;;;;;;10172531;28;84091;-50
2021/12/24 01:04:25;;;;;;;13.05;5.72;;;7.50;99.90;;;;;;10170607;28;87043;-52
2021/12/24 01:09:26;;;;;;;13.55;6.03;;;7.50;99.90;;;;;;10171689;28;85733;-48
2021/12/24 01:14:29;;;;;;;15.13;6.40;;;7.60;99.90;;;;;;10153536;28;85101;-53
2021/12/24 01:19:30;;;;;;;13.77;5.63;;;7.70;99.90;;;;;;10170215;28;85988;-50
2021/12/24 01:24:40;;;;;;;12.32;5.80;;;7.60;99.90;;;;;;10169631;28;86771;-53
2021/12/24 01:29:58;;;;;;;17.20;6.40;;;7.70;99.90;;;;;;10171363;28;84236;-50
2021/12/24 01:45:24;;;;;;;16.88;7.13;;;7.90;99.90;;;;;;10168719;28;86196;-49
2021/12/24 01:50:29;;;;;;;13.50;6.50;;;7.90;99.90;;;;;;10168612;28;86036;-53
2021/12/24 01:55:31;;;;;;;16.02;7.13;;;8.00;99.90;;;;;;10168151;28;85933;-51
2021/12/24 02:00:39;;;;;;;18.08;8.20;;;8.00;99.90;;;;;;10169626;28;87222;-51
2021/12/24 02:05:41;;;;;;;15.23;7.85;;;8.10;99.90;;;;;;10168340;28;85992;-49
2021/12/24 02:10:42;;;;;;;14.18;6.93;;;8.10;99.90;;;;;;10167928;28;86029;-48
2021/12/24 02:31:25;;;;;;;12.00;5.88;;;8.20;99.90;;;;;;10167883;28;85995;-52
2021/12/24 02:36:28;;;;;;;12.45;6.43;;;8.20;99.90;;;;;;10167004;28;84845;-49
2021/12/24 02:41:28;;;;;;;13.63;6.95;;;8.30;99.90;;;;;;10167182;28;86078;-51
2021/12/24 02:47:03;;;;;;;12.52;6.13;;;8.30;99.90;;;;;;10166918;28;84935;-51
2021/12/24 02:57:21;;;;;;;14.80;6.53;;;8.50;99.90;;;;;;10167061;28;84713;-52
2021/12/24 03:02:22;;;;;;;11.32;6.18;;;8.50;99.90;;;;;;10166853;28;86118;-53
2021/12/24 03:07:22;;;;;;;10.98;6.05;;;8.50;99.90;;;;;;10166961;28;84757;-50
2021/12/24 03:12:25;;;;;;;11.50;6.28;;;8.60;99.90;;;;;;10165802;28;86781;-54
2021/12/24 03:17:26;;;;;;;14.30;7.50;;;8.60;99.90;;;;;;10166529;28;86404;-50
2021/12/24 03:27:28;;;;;;;12.50;6.55;;;8.70;99.90;;;;;;10164739;28;86069;-49
2021/12/24 03:32:30;;;;;;;13.65;6.90;;;8.70;99.90;;;;;;10165724;28;86015;-53
2021/12/24 03:37:30;;;;;;;16.80;7.28;;;8.80;99.90;;;;;;10166496;28;84551;-50
2021/12/24 03:42:37;;;;;;;15.52;7.53;;;8.80;99.90;;;;;;10165424;28;86495;-53
2021/12/24 03:47:40;;;;;;;15.32;7.45;;;8.80;99.90;;;;;;10165168;28;84930;-50
2021/12/24 03:57:51;;;;;;;16.60;7.35;;;9.00;99.90;;;;;;10164771;28;85940;-49
2021/12/24 04:03:10;;;;;;;16.27;7.38;;;9.00;99.90;;;;;;10166538;28;84474;-52
2021/12/24 04:08:15;;;;;;;15.10;7.45;;;9.00;99.90;;;;;;10164446;28;84179;-51
2021/12/24 04:13:42;;;;;;;16.25;7.93;;;9.10;99.90;;;;;;10149008;28;84690;-52
2021/12/24 04:29:29;;;;;;;12.48;6.25;;;9.10;99.90;;;;;;10177429;28;85998;-51
2021/12/24 04:34:35;;;;;;;12.98;7.25;;;9.20;99.90;;;;;;10176812;28;86028;-51
2021/12/24 04:50:57;;;;;;;17.40;6.72;;;9.20;99.90;;;;;;10178818;28;84994;-54
2021/12/24 05:01:16;;;;;;;14.95;6.40;;;9.20;99.90;;;;;;10177939;28;85950;-51
2021/12/24 05:11:22;;;;;;;17.10;7.47;;;9.30;99.90;;;;;;10178552;28;86851;-54
2021/12/24 05:17:20;;;;;;;18.85;9.25;;;9.30;99.90;;;;;;10183841;28;84338;-53
2021/12/24 05:22:06;;;;;;;23.90;9.95;;;9.30;99.90;;;;;;10193384;28;84489;-49
2021/12/24 05:27:10;;;;;;;28.88;10.93;;;9.30;99.90;;;;;;10188274;28;86983;-52
2021/12/24 05:32:10;;;;;;;27.83;12.18;;;9.30;99.90;;;;;;10174885;28;84845;-52
2021/12/24 05:37:11;;;;;;;23.67;11.70;;;9.30;99.90;;;;;;10183300;23;86176;-54
2021/12/24 05:42:12;;;;;;;30.60;12.73;;;9.30;99.90;;;;;;10169376;28;86725;-56
2021/12/24 05:47:13;;;;;;;30.58;13.38;;;9.40;99.90;;;;;;10169063;28;86249;-52
2021/12/24 05:52:16;;;;;;;32.30;12.23;;;9.40;99.90;;;;;;10153278;28;85544;-52
2021/12/24 05:57:27;;;;;;;27.33;12.18;;;9.40;99.90;;;;;;10168815;28;85990;-53
2021/12/24 06:02:28;;;;;;;27.75;12.35;;;9.40;99.90;;;;;;10169049;28;86103;-52
2021/12/24 06:07:29;;;;;;;30.25;13.27;;;9.50;99.90;;;;;;10169626;28;84875;-50
2021/12/24 06:12:29;;;;;;;31.08;13.50;;;9.50;99.90;;;;;;10170765;28;84042;-56
2021/12/24 06:17:30;;;;;;;28.75;12.75;;;9.50;99.90;;;;;;10169478;28;84034;-53
2021/12/24 06:22:31;;;;;;;24.70;11.77;;;9.50;99.90;;;;;;10169222;28;84883;-51
2021/12/24 06:27:32;;;;;;;30.27;12.73;;;9.50;99.90;;;;;;10167649;28;84548;-53
2021/12/24 06:32:33;;;;;;;27.10;11.70;;;9.50;99.90;;;;;;10169188;28;84770;-53
2021/12/24 06:37:33;;;;;;;30.75;12.27;;;9.50;99.90;;;;;;10168757;28;84983;-54
2021/12/24 06:42:34;;;;;;;29.60;12.00;;;9.50;99.90;;;;;;10167912;28;84212;-53
2021/12/24 06:47:35;;;;;;;26.90;12.32;;;9.50;99.90;;;;;;10168054;28;89027;-54
2021/12/24 06:52:35;;;;;;;26.40;11.13;;;9.50;99.90;;;;;;10170186;28;84269;-56
2021/12/24 06:57:37;;;;;;;25.40;11.45;;;9.60;99.90;;;;;;10168497;28;84180;-53
2021/12/24 07:02:38;;;;;;;23.08;10.57;;;9.50;99.90;;;;;;10167253;28;85991;-52
2021/12/24 07:07:38;;;;;;;25.00;12.05;;;9.50;99.90;;;;;;10166755;28;85011;-57
2021/12/24 07:12:39;;;;;;;26.15;10.80;;;9.50;99.90;;;;;;10169662;28;85225;-56
2021/12/24 07:17:40;;;;;;;28.27;12.02;;;9.60;99.90;;;;;;10166152;28;85947;-55
2021/12/24 07:22:41;;;;;;;24.42;10.80;;;9.50;99.90;;;;;;10168438;28;84530;-55
2021/12/24 07:27:41;;;;;;;25.48;11.10;;;9.60;99.90;;;;;;10166981;28;84825;-53
2021/12/24 07:32:42;;;;;;;25.63;10.55;;;9.60;99.90;;;;;;10167266;28;84123;-51
2021/12/24 07:37:43;;;;;;;23.10;10.13;;;9.70;99.90;;;;;;10164965;28;84567;-52
2021/12/24 07:42:46;;;;;;;21.15;10.30;;;9.60;99.90;;;;;;10167499;28;85000;-52
2021/12/24 07:48:05;;;;;;;26.50;10.80;;;9.60;99.90;;;;;;10166547;28;85060;-55
2021/12/24 07:53:09;;;;;;;28.83;10.20;;;9.60;99.90;;;;;;10166881;28;84110;-55
2021/12/24 07:58:10;;;;;;;24.95;10.75;;;9.50;99.90;;;;;;10166136;28;84942;-54
2021/12/24 08:03:11;;;;;;;25.90;10.32;;;9.60;99.90;;;;;;10166729;28;84965;-54
2021/12/24 08:08:12;;;;;;;26.20;9.88;;;9.60;99.90;;;;;;10166504;28;84217;-52
2021/12/24 08:13:12;;;;;;;16.45;8.15;;;9.60;99.90;;;;;;10167689;28;84929;-51
2021/12/24 08:18:13;;;;;;;21.73;8.93;;;9.60;99.90;;;;;;10166214;28;84951;-54
2021/12/24 08:23:14;;;;;;;19.63;8.88;;;9.60;99.90;;;;;;10168001;28;84940;-54
2021/12/24 08:28:14;;;;;;;18.38;9.10;;;9.60;99.90;;;;;;10167025;28;84976;-53
2021/12/24 08:33:16;;;;;;;16.00;7.35;;;9.60;99.90;;;;;;10166609;28;84125;-53
2021/12/24 08:38:18;;;;;;;15.20;7.05;;;9.60;99.90;;;;;;10165467;28;84961;-51
2021/12/24 08:43:19;;;;;;;17.55;7.68;;;9.50;99.90;;;;;;10165698;28;84738;-54
2021/12/24 08:48:20;;;;;;;18.58;8.65;;;9.50;99.90;;;;;;10165470;28;84200;-53
2021/12/24 08:53:23;;;;;;;17.67;7.05;;;9.50;99.90;;;;;;10166360;28;83982;-51
2021/12/24 08:58:23;;;;;;;15.70;7.10;;;9.50;99.90;;;;;;10165121;28;84500;-50
2021/12/24 09:03:24;;;;;;;17.35;6.72;;;9.50;99.90;;;;;;10164290;28;84537;-57
2021/12/24 09:08:25;;;;;;;13.10;7.45;;;9.50;99.90;;;;;;10172220;28;84045;-55
2021/12/24 09:13:26;;;;;;;18.40;8.02;;;9.50;99.90;;;;;;10172630;28;84739;-53
2021/12/24 09:18:26;;;;;;;13.25;7.60;;;9.50;99.90;;;;;;10172023;28;84795;-55
2021/12/24 09:23:27;;;;;;;13.15;7.30;;;9.40;99.90;;;;;;10172539;28;85055;-53
2021/12/24 09:28:27;;;;;;;16.45;7.30;;;9.40;99.90;;;;;;10171771;28;84783;-56
2021/12/24 09:33:28;;;;;;;17.02;7.43;;;9.30;99.90;;;;;;10171872;28;85301;-53
2021/12/24 09:38:29;;;;;;;14.45;6.90;;;9.30;99.90;;;;;;10170064;28;86277;-55
2021/12/24 09:43:29;;;;;;;14.77;6.18;;;9.30;99.90;;;;;;10171262;28;84866;-52
2021/12/24 09:48:30;;;;;;;18.00;6.50;;;9.30;99.90;;;;;;10171176;28;84888;-49
2021/12/24 09:53:31;;;;;;;15.00;7.10;;;9.30;99.90;;;;;;10171888;28;84890;-52
2021/12/24 09:58:33;;;;;;;11.95;6.20;;;9.40;99.90;;;;;;10170865;28;85083;-52
2021/12/24 10:03:36;;;;;;;15.07;7.20;;;9.40;99.90;;;;;;10171180;28;85000;-51
2021/12/24 10:08:37;;;;;;;14.55;6.82;;;9.40;99.90;;;;;;10170356;28;84926;-51
2021/12/24 10:13:44;;;;;;;12.00;6.45;;;9.40;99.90;;;;;;10170721;28;84937;-54
2021/12/24 10:18:51;;;;;;;14.82;6.93;;;9.40;99.90;;;;;;10169902;28;84749;-50
2021/12/24 10:24:00;;;;;;;14.40;5.78;;;9.50;99.90;;;;;;10169661;28;85265;-52
2021/12/24 10:29:15;;;;;;;19.63;7.35;;;9.50;99.90;;;;;;10168900;28;84898;-51
2021/12/24 10:34:34;;;;;;;11.10;5.95;;;9.50;99.90;;;;;;10169737;28;85093;-52
2021/12/24 10:39:47;;;;;;;16.50;6.50;;;9.50;99.90;;;;;;10168789;28;84839;-55
2021/12/24 10:44:50;;;;;;;12.88;4.82;;;9.60;99.90;;;;;;10168468;28;84347;-52
2021/12/24 10:55:09;;;;;;;11.75;5.15;;;9.60;99.90;;;;;;10168979;28;84915;-54
2021/12/24 11:00:20;;;;;;;16.40;6.38;;;9.60;99.90;;;;;;10169122;28;84089;-54
2021/12/24 11:05:29;;;;;;;18.25;6.30;;;9.50;99.90;;;;;;10168004;28;85819;-52
2021/12/24 11:10:32;;;;;;;13.75;6.40;;;9.50;99.90;;;;;;10168001;28;84024;-50
2021/12/24 11:15:50;;;;;;;16.38;5.55;;;9.50;99.90;;;;;;10168633;28;84212;-54
2021/12/24 11:20:57;;;;;;;17.45;7.07;;;9.40;99.90;;;;;;10169085;28;84621;-52
2021/12/24 11:26:07;;;;;;;21.30;7.18;;;9.40;99.90;;;;;;10168767;28;85060;-53
2021/12/24 11:31:14;;;;;;;16.23;6.82;;;9.40;99.90;;;;;;10168187;28;84914;-53
2021/12/24 11:36:17;;;;;;;20.08;7.63;;;9.40;99.90;;;;;;10203013;23;84219;-48
2021/12/24 11:41:20;;;;;;;16.33;6.70;;;9.40;99.90;;;;;;10206513;28;84169;-49
2021/12/24 11:46:23;;;;;;;17.00;6.72;;;9.30;99.90;;;;;;10204234;28;84901;-50
2021/12/24 11:51:34;;;;;;;12.93;5.63;;;9.30;99.90;;;;;;10204190;28;87073;-47
2021/12/24 11:56:54;;;;;;;16.02;5.93;;;9.30;99.90;;;;;;10205972;28;85557;-50
2021/12/24 12:01:54;;;;;;;12.75;5.60;;;9.30;99.90;;;;;;10206371;28;84805;-50
2021/12/24 12:07:16;;;;;;;12.73;5.85;;;9.30;99.90;;;;;;10204991;28;91163;-49
2021/12/24 12:12:35;;;;;;;12.48;5.60;;;9.30;99.90;;;;;;10205731;28;85099;-50
2021/12/24 12:17:53;;;;;;;10.00;5.22;;;9.30;99.90;;;;;;10206115;28;84398;-49
2021/12/24 12:22:57;;;;;;;11.15;4.95;;;9.30;99.90;;;;;;10204532;28;84155;-46
2021/12/24 12:28:03;;;;;;;9.65;4.22;;;9.30;99.90;;;;;;10202821;28;84280;-49
2021/12/24 12:33:16;;;;;;;7.20;4.10;;;9.30;99.90;;;;;;10205361;28;85150;-47
2021/12/24 12:38:29;;;;;;;7.38;3.53;;;9.30;99.90;;;;;;10205457;28;85001;-51
2021/12/24 12:43:31;;;;;;;12.20;3.70;;;9.30;99.90;;;;;;10210670;28;84162;-50
2021/12/24 12:48:43;;;;;;;10.30;3.97;;;9.40;99.90;;;;;;10214087;28;84915;-48
2021/12/24 12:53:43;;;;;;;8.13;3.53;;;9.40;99.90;;;;;;10194062;28;87383;-47
2021/12/24 12:58:58;;;;;;;8.98;4.20;;;9.40;99.90;;;;;;10210363;28;84180;-48
2021/12/24 13:03:58;;;;;;;9.23;4.40;;;9.40;99.90;;;;;;10213248;28;84336;-47
2021/12/24 13:09:03;;;;;;;11.27;4.43;;;9.40;99.90;;;;;;10209767;28;84049;-47
2021/12/24 13:14:04;;;;;;;11.38;4.63;;;9.50;99.90;;;;;;10211936;28;84833;-49
2021/12/24 13:24:26;;;;;;;10.55;4.30;;;9.50;99.90;;;;;;10211398;28;84877;-49
2021/12/24 13:29:27;;;;;;;10.68;4.30;;;9.50;99.90;;;;;;10211190;28;85060;-49
2021/12/24 13:34:27;;;;;;;12.65;4.97;;;9.50;99.90;;;;;;10211326;28;84089;-51
2021/12/24 13:39:28;;;;;;;10.95;4.57;;;9.60;99.90;;;;;;10208993;28;85984;-48
2021/12/24 13:44:32;;;;;;;13.52;5.28;;;9.50;99.90;;;;;;10210355;28;84091;-49
2021/12/24 13:54:40;;;;;;;12.70;5.30;;;9.60;99.90;;;;;;10208686;28;86008;-51
2021/12/24 13:59:40;;;;;;;11.70;4.72;;;9.50;99.90;;;;;;10210114;28;84874;-51
2021/12/24 14:04:41;;;;;;;11.60;4.43;;;9.50;99.90;;;;;;10210129;28;84652;-49
2021/12/24 14:09:43;;;;;;;9.57;4.35;;;9.40;99.90;;;;;;10208883;28;84135;-51
2021/12/24 14:15:05;;;;;;;10.60;5.20;;;9.40;99.90;;;;;;10209199;28;84156;-53
2021/12/24 14:20:11;;;;;;;7.28;4.50;;;9.40;99.90;;;;;;10210155;28;84766;-48
2021/12/24 14:25:15;;;;;;;9.23;4.45;;;9.30;99.90;;;;;;10208460;28;85140;-47
2021/12/24 14:30:21;;;;;;;10.38;5.00;;;9.30;99.90;;;;;;10208616;28;84026;-50
2021/12/24 14:35:24;;;;;;;8.00;4.30;;;9.20;99.90;;;;;;10208359;28;85491;-50
2021/12/24 14:40:27;;;;;;;8.55;4.65;;;9.20;99.90;;;;;;10208548;28;85120;-51
2021/12/24 14:45:34;;;;;;;9.23;4.15;;;9.20;99.90;;;;;;10206643;28;85040;-50
2021/12/24 14:51:04;;;;;;;9.63;4.40;;;9.20;99.90;;;;;;10208920;28;84653;-49
2021/12/24 14:56:17;;;;;;;12.15;5.40;;;9.20;99.90;;;;;;10200839;28;85075;-48
2021/12/24 15:01:21;;;;;;;9.75;3.60;;;9.30;99.90;;;;;;10207666;28;85050;-47
2021/12/24 15:06:38;;;;;;;9.55;4.00;;;9.30;99.90;;;;;;10206404;28;85853;-49
2021/12/24 15:11:40;;;;;;;6.63;3.65;;;9.20;99.90;;;;;;10206128;28;85177;-52
2021/12/24 15:16:47;;;;;;;9.32;3.40;;;9.20;99.90;;;;;;10207133;28;84575;-49
2021/12/24 15:21:48;;;;;;;6.18;2.55;;;9.10;99.90;;;;;;10207771;28;84156;-52
2021/12/24 15:26:49;;;;;;;8.98;3.50;;;9.10;99.90;;;;;;10205388;28;84899;-52
2021/12/24 15:31:50;;;;;;;3.03;1.58;;;9.10;99.90;;;;;;10207603;28;84885;-52
2021/12/24 15:36:50;;;;;;;1.73;1.08;;;8.80;99.90;;;;;;10206367;28;84792;-52
2021/12/24 15:41:51;;;;;;;1.10;0.82;;;8.20;99.90;;;;;;10207091;28;84932;-48
2021/12/24 15:46:51;;;;;;;0.95;0.75;;;7.80;99.90;;;;;;10205765;28;84824;-51
2021/12/24 15:51:52;;;;;;;1.60;1.10;;;7.60;99.90;;;;;;10206607;28;84850;-50
2021/12/24 15:56:53;;;;;;;1.30;0.95;;;7.50;99.90;;;;;;10189093;28;85487;-49
2021/12/24 16:01:53;;;;;;;1.98;1.52;;;7.30;99.90;;;;;;10205704;28;84146;-47
2021/12/24 16:06:54;;;;;;;1.60;1.02;;;7.10;99.90;;;;;;10203604;28;87070;-47
2021/12/24 16:11:55;;;;;;;1.90;1.20;;;7.10;99.90;;;;;;10204367;28;84891;-48
2021/12/24 16:16:56;;;;;;;1.73;1.40;;;7.10;99.90;;;;;;10204681;28;84056;-47
2021/12/24 16:21:57;;;;;;;3.10;1.55;;;6.90;99.90;;;;;;10206192;28;84255;-46
2021/12/24 16:26:57;;;;;;;1.52;1.17;;;6.80;99.90;;;;;;10204436;28;84211;-50
2021/12/24 16:31:58;;;;;;;1.47;1.17;;;6.70;99.90;;;;;;10205504;28;84775;-47
2021/12/24 16:36:59;;;;;;;1.07;0.90;;;6.60;99.90;;;;;;10204476;28;84779;-47
2021/12/24 16:41:59;;;;;;;1.60;1.20;;;6.50;99.90;;;;;;10204840;28;85062;-46
2021/12/24 16:47:00;;;;;;;1.90;1.13;;;6.50;99.90;;;;;;10204570;28;84956;-48
2021/12/24 16:52:03;;;;;;;2.15;1.40;;;6.40;99.90;;;;;;10205516;28;84728;-48
2021/12/24 16:57:05;;;;;;;3.42;1.90;;;6.50;99.90;;;;;;10204432;28;84145;-46
2021/12/24 17:02:09;;;;;;;2.90;1.65;;;6.50;99.90;;;;;;10207910;28;84509;-47
2021/12/24 17:07:12;;;;;;;4.38;2.00;;;6.50;99.90;;;;;;10205952;28;84204;-50
2021/12/24 17:12:14;;;;;;;2.30;1.67;;;6.50;99.90;;;;;;10206713;28;84622;-47
2021/12/24 17:17:16;;;;;;;3.42;2.00;;;6.40;99.90;;;;;;10203240;28;86632;-47
2021/12/24 17:22:16;;;;;;;2.57;2.23;;;6.50;99.90;;;;;;10204137;28;85160;-47
2021/12/24 17:27:18;;;;;;;3.08;2.20;;;6.50;99.90;;;;;;10206458;28;84228;-48
2021/12/24 17:32:19;;;;;;;;;;;6.40;99.90;;;;;;10210207;28;84889;-48
2021/12/24 17:37:22;;;;;;;;;;;6.40;99.90;;;;;;10221771;23;85000;-47
2021/12/24 17:42:23;;;;;;;2.90;1.60;;;6.30;99.90;;;;;;10210791;28;84719;-48
2021/12/24 17:47:23;;;;;;;2.30;1.50;;;6.20;99.90;;;;;;10209618;28;84802;-51
2021/12/24 17:52:24;;;;;;;3.30;2.00;;;6.10;99.90;;;;;;10209179;28;85005;-51
2021/12/24 17:57:25;;;;;;;2.57;2.00;;;6.20;99.90;;;;;;10208424;28;85003;-51
2021/12/24 18:02:25;;;;;;;2.10;1.65;;;6.20;99.90;;;;;;10209910;28;84943;-48
2021/12/24 18:07:26;;;;;;;3.20;2.40;;;6.20;99.90;;;;;;10208885;28;84053;-52
2021/12/24 18:12:29;;;;;;;4.03;2.22;;;6.10;99.90;;;;;;10210223;28;84019;-49
2021/12/24 18:17:30;;;;;;;3.00;2.20;;;6.20;99.90;;;;;;10209158;28;84266;-47
2021/12/24 18:22:31;;;;;;;2.50;1.77;;;6.20;99.90;;;;;;10210146;28;84914;-48
2021/12/24 18:27:32;;;;;;;3.40;2.20;;;6.20;99.90;;;;;;10208366;28;84750;-48
2021/12/24 18:32:33;;;;;;;3.30;2.40;;;6.10;99.90;;;;;;10207488;28;84957;-50
2021/12/24 18:37:48;;;;;;;;;;;6.00;99.90;;;;;;10206061;28;86106;-50
2021/12/24 18:42:49;;;;;;;5.05;2.60;;;6.10;99.90;;;;;;10209081;28;84099;-49
2021/12/24 18:47:50;;;;;;;3.95;2.55;;;6.00;99.90;;;;;;10206457;28;87217;-53
2021/12/24 18:52:50;;;;;;;4.70;2.80;;;6.00;99.90;;;;;;10209047;28;84921;-49
2021/12/24 18:57:52;;;;;;;3.80;2.80;;;6.00;99.90;;;;;;10207382;28;86465;-49
2021/12/24 19:02:53;;;;;;;3.50;2.50;;;5.90;99.90;;;;;;10207735;28;85068;-52
2021/12/24 19:07:55;;;;;;;6.05;2.60;;;5.90;99.90;;;;;;10207597;28;85095;-47
2021/12/24 19:12:56;;;;;;;6.50;2.65;;;5.90;99.90;;;;;;10207461;28;84775;-54
2021/12/24 19:17:57;;;;;;;4.05;2.70;;;5.90;99.90;;;;;;10207409;28;84844;-50
2021/12/24 19:22:58;;;;;;;4.50;3.05;;;6.00;99.90;;;;;;10206958;28;85031;-48
2021/12/24 19:27:59;;;;;;;6.10;3.15;;;5.90;99.90;;;;;;10205019;28;84116;-50
2021/12/24 19:33:00;;;;;;;;;;;6.00;99.90;;;;;;10205357;28;85146;-48
2021/12/24 19:38:01;;;;;;;;;;;6.00;99.90;;;;;;10204590;28;86117;-49
2021/12/24 19:43:03;;;;;;;;;;;5.90;99.90;;;;;;10205044;28;84846;-52
2021/12/24 19:48:04;;;;;;;;;;;6.00;99.90;;;;;;10205297;28;84705;-52
2021/12/24 19:53:05;;;;;;;;;;;6.00;99.90;;;;;;10205140;28;86769;-50
2021/12/24 19:58:08;;;;;;;;;;;6.00;99.90;;;;;;10204070;28;84800;-48
2021/12/24 20:03:09;;;;;;;;;;;5.90;99.90;;;;;;10206262;28;84105;-53
2021/12/24 20:08:10;;;;;;;;;;;5.90;99.90;;;;;;10204746;28;84651;-47
2021/12/24 20:13:10;;;;;;;;;;;5.90;99.90;;;;;;10205427;28;84898;-50
2021/12/24 20:18:14;;;;;;;;;;;5.90;99.90;;;;;;10205283;28;84803;-53
2021/12/24 20:23:15;;;;;;;5.70;4.10;;;5.80;99.90;;;;;;10188646;28;87008;-50
2021/12/24 20:28:15;;;;;;;;;;;5.80;99.90;;;;;;10204371;28;84034;-50
2021/12/24 20:33:16;;;;;;;;;;;5.80;99.90;;;;;;10204461;28;84065;-53
2021/12/24 20:38:17;;;;;;;;;;;5.60;99.90;;;;;;10205553;28;84138;-51
2021/12/24 20:43:18;;;;;;;;;;;5.50;99.90;;;;;;10205920;28;87095;-53
2021/12/24 20:48:18;;;;;;;;;;;5.40;99.90;;;;;;10204840;28;84356;-49
2021/12/24 20:53:19;;;;;;;;;;;5.30;99.90;;;;;;10204230;28;84972;-51
2021/12/24 20:58:20;;;;;;;;;;;5.30;99.90;;;;;;10202633;28;84147;-48
2021/12/24 21:03:20;;;;;;;;;;;5.30;99.90;;;;;;10208861;28;85149;-48
2021/12/24 21:08:21;;;;;;;;;;;5.20;99.90;;;;;;10210684;28;84795;-48
2021/12/24 21:13:23;;;;;;;;;;;5.10;99.90;;;;;;10210124;28;84962;-50
2021/12/24 21:18:24;;;;;;;;;;;5.00;99.90;;;;;;10208617;28;84764;-48
2021/12/24 21:23:31;;;;;;;;;;;5.00;99.90;;;;;;10210078;28;84020;-47
2021/12/24 21:28:32;;;;;;;;;;;4.90;99.90;;;;;;10209332;28;84885;-49
2021/12/24 21:33:33;;;;;;;;;;;4.80;99.90;;;;;;10209342;28;85257;-48
2021/12/24 21:38:33;;;;;;;;;;;4.90;99.90;;;;;;10208930;28;84024;-54
2021/12/24 21:43:34;;;;;;;;;;;4.80;99.90;;;;;;10208625;28;84842;-53
2021/12/24 21:48:35;;;;;;;;;;;4.60;99.90;;;;;;10207951;28;84185;-47
2021/12/24 21:53:36;;;;;;;;;;;4.60;99.90;;;;;;10207904;28;84038;-50
2021/12/24 21:58:37;;;;;;;;;;;4.40;99.90;;;;;;10208262;28;84977;-52
2021/12/24 22:03:50;;;;;;;;;;;4.30;99.90;;;;;;10208075;28;84819;-52
2021/12/24 22:08:55;;;;;;;;;;;4.30;99.90;;;;;;10207823;28;84867;-53
2021/12/24 22:13:56;;;;;;;;;;;4.20;99.90;;;;;;10207802;28;85090;-47
2021/12/24 22:18:57;;;;;;;;;;;4.20;99.90;;;;;;10207058;28;84969;-49
2021/12/24 22:23:57;;;;;;;;;;;4.20;99.90;;;;;;10207054;28;84667;-52
2021/12/24 22:28:58;;;;;;;;;;;4.20;99.90;;;;;;10188243;28;86108;-53
2021/12/24 22:33:59;;;;;;;;;;;4.20;99.90;;;;;;10207152;28;84983;-50
2021/12/24 22:38:59;;;;;;;;;;;4.00;99.90;;;;;;10205111;28;84218;-49
2021/12/24 22:44:00;;;;;;;;;;;4.00;99.90;;;;;;10205472;28;86316;-50
2021/12/24 22:49:01;;;;;;;;;;;4.00;99.90;;;;;;10205050;28;84842;-48
2021/12/24 22:54:02;;;;;;;;;;;4.00;99.90;;;;;;10204067;28;84969;-50
2021/12/24 22:59:02;;;;;;;;;;;3.90;99.90;;;;;;10204902;28;84819;-49
2021/12/24 23:04:03;;;;;;;;;;;3.90;99.90;;;;;;10204522;28;84944;-48
2021/12/24 23:09:04;;;;;;;;;;;3.80;99.90;;;;;;10204453;28;84295;-51
2021/12/24 23:14:04;;;;;;;;;;;3.80;99.90;;;;;;10205540;28;84254;-52
2021/12/24 23:19:12;;;;;;;;;;;3.80;99.90;;;;;;10205305;28;84181;-49
2021/12/24 23:24:16;;;;;;;;;;;3.60;99.90;;;;;;10202904;28;86384;-49
2021/12/24 23:29:16;;;;;;;;;;;3.60;99.90;;;;;;10202922;28;86925;-48
2021/12/24 23:34:17;;;;;;;;;;;3.60;99.90;;;;;;10205310;28;84193;-47
2021/12/24 23:39:18;;;;;;;;;;;3.50;99.90;;;;;;10220427;23;84362;-54
2021/12/24 23:44:18;;;;;;;;;;;3.40;99.90;;;;;;10207207;28;84321;-54
2021/12/24 23:49:19;;;;;;;;;;;3.30;99.90;;;;;;10206293;28;84964;-51
2021/12/24 23:54:21;;;;;;;;;;;3.30;99.90;;;;;;10207710;28;85820;-52
2021/12/24 23:59:21;;;;;;;;;;;3.40;99.90;;;;;;10208394;28;85512;-54
